createdAt,value
2023-04-23T00:00:46.698Z,61.26
2023-04-23T00:03:36.475Z,61.70
2023-04-23T00:06:10.260Z,61.84
2023-04-23T00:08:42.024Z,62.06
2023-04-23T00:11:10.433Z,62.28
2023-04-23T00:13:38.837Z,62.21
2023-04-23T00:16:07.562Z,63.23
2023-04-23T00:18:35.426Z,61.52
2023-04-23T00:21:03.481Z,57.57
2023-04-23T00:23:31.372Z,56.53
2023-04-23T00:25:59.097Z,57.43
2023-04-23T00:28:26.946Z,58.20
2023-04-23T00:30:54.904Z,58.77
2023-04-23T00:33:23.017Z,58.90
2023-04-23T00:35:50.895Z,59.32
2023-04-23T00:38:20.993Z,59.74
2023-04-23T00:40:49.276Z,60.54
2023-04-23T00:43:17.774Z,60.63
2023-04-23T00:45:46.020Z,60.76
2023-04-23T00:48:13.912Z,61.16
2023-04-23T00:50:42.336Z,61.37
2023-04-23T00:53:10.267Z,61.61
2023-04-23T00:55:38.156Z,61.97
2023-04-23T00:58:06.932Z,63.09
2023-04-23T01:00:41.293Z,61.77
2023-04-23T01:03:09.319Z,57.59
2023-04-23T01:05:37.194Z,56.76
2023-04-23T01:08:05.045Z,57.80
2023-04-23T01:10:33.041Z,58.45
2023-04-23T01:13:00.933Z,59.17
2023-04-23T01:15:28.750Z,59.51
2023-04-23T01:17:58.485Z,59.91
2023-04-23T01:20:26.673Z,60.51
2023-04-23T01:22:54.712Z,60.98
2023-04-23T01:25:22.583Z,61.28
2023-04-23T01:27:50.830Z,61.67
2023-04-23T01:30:19.342Z,62.16
2023-04-23T01:32:47.557Z,63.30
2023-04-23T01:35:15.618Z,61.32
2023-04-23T01:37:44.146Z,57.58
2023-04-23T01:40:12.323Z,57.11
2023-04-23T01:42:41.113Z,58.07
2023-04-23T01:45:10.153Z,58.92
2023-04-23T01:47:38.155Z,59.70
2023-04-23T01:50:07.051Z,60.27
2023-04-23T01:52:34.925Z,60.71
2023-04-23T01:55:02.947Z,61.36
2023-04-23T01:57:30.736Z,61.75
2023-04-23T02:00:08.850Z,61.98
2023-04-23T02:02:38.408Z,63.23
2023-04-23T02:05:16.650Z,61.35
2023-04-23T02:07:47.242Z,57.17
2023-04-23T02:10:15.896Z,56.76
2023-04-23T02:12:44.763Z,57.71
2023-04-23T02:15:14.232Z,58.67
2023-04-23T02:17:42.319Z,59.51
2023-04-23T02:20:11.494Z,59.97
2023-04-23T02:22:42.458Z,60.62
2023-04-23T02:25:11.066Z,60.97
2023-04-23T02:27:39.022Z,61.34
2023-04-23T02:30:09.132Z,61.85
2023-04-23T02:32:38.149Z,63.10
2023-04-23T02:35:06.781Z,61.74
2023-04-23T02:37:34.611Z,57.48
2023-04-23T02:40:03.887Z,56.92
2023-04-23T02:42:31.710Z,58.01
2023-04-23T02:44:59.634Z,58.82
2023-04-23T02:47:27.517Z,59.63
2023-04-23T02:49:55.598Z,60.13
2023-04-23T02:52:23.447Z,60.65
2023-04-23T02:54:51.151Z,60.90
2023-04-23T02:57:19.258Z,61.60
2023-04-23T02:59:47.164Z,62.05
2023-04-23T03:02:15.054Z,63.37
2023-04-23T03:04:43.358Z,61.73
2023-04-23T03:07:13.332Z,57.57
2023-04-23T03:09:42.348Z,57.00
2023-04-23T03:12:10.294Z,58.22
2023-04-23T03:14:38.206Z,59.18
2023-04-23T03:17:06.460Z,60.17
2023-04-23T03:19:34.301Z,60.72
2023-04-23T03:22:05.748Z,61.08
2023-04-23T03:24:35.089Z,61.93
2023-04-23T03:27:02.931Z,63.26
2023-04-23T03:29:30.780Z,61.09
2023-04-23T03:31:58.634Z,57.25
2023-04-23T03:34:26.472Z,56.86
2023-04-23T03:36:54.232Z,58.27
2023-04-23T03:39:22.025Z,59.55
2023-04-23T03:41:50.291Z,60.32
2023-04-23T03:44:18.405Z,61.02
2023-04-23T03:46:46.426Z,61.88
2023-04-23T03:49:14.266Z,63.25
2023-04-23T03:51:42.089Z,61.02
2023-04-23T03:54:09.904Z,56.90
2023-04-23T03:56:37.763Z,57.09
2023-04-23T03:59:05.629Z,58.49
2023-04-23T04:01:36.234Z,59.48
2023-04-23T04:04:04.408Z,60.51
2023-04-23T04:06:33.689Z,61.17
2023-04-23T04:09:01.690Z,61.92
2023-04-23T04:11:29.446Z,63.22
2023-04-23T04:13:57.218Z,61.62
2023-04-23T04:16:25.231Z,57.49
2023-04-23T04:18:54.442Z,56.88
2023-04-23T04:21:24.134Z,58.25
2023-04-23T04:23:51.909Z,59.08
2023-04-23T04:26:19.677Z,59.78
2023-04-23T04:28:47.502Z,60.19
2023-04-23T04:31:16.155Z,60.37
2023-04-23T04:33:46.397Z,60.67
2023-04-23T04:36:14.587Z,60.74
2023-04-23T04:38:43.931Z,61.04
2023-04-23T04:41:11.927Z,61.04
2023-04-23T04:43:41.452Z,61.18
2023-04-23T04:46:11.762Z,61.29
2023-04-23T04:48:39.545Z,61.39
2023-04-23T04:51:07.724Z,61.78
2023-04-23T04:53:36.130Z,62.23
2023-04-23T04:56:04.292Z,62.18
2023-04-23T04:58:32.092Z,63.35
2023-04-23T05:01:01.461Z,61.67
2023-04-23T05:03:29.654Z,57.55
2023-04-23T05:05:59.005Z,56.95
2023-04-23T05:08:26.992Z,58.03
2023-04-23T05:10:54.754Z,59.05
2023-04-23T05:13:22.622Z,59.77
2023-04-23T05:15:50.516Z,60.29
2023-04-23T05:18:18.486Z,60.82
2023-04-23T05:20:46.340Z,61.24
2023-04-23T05:23:14.418Z,61.34
2023-04-23T05:25:42.350Z,61.64
2023-04-23T05:28:10.825Z,63.13
2023-04-23T05:30:38.757Z,61.55
2023-04-23T05:33:06.884Z,56.07
2023-04-23T05:35:34.980Z,55.48
2023-04-23T05:38:03.293Z,56.61
2023-04-23T05:40:31.175Z,57.66
2023-04-23T05:42:59.654Z,58.55
2023-04-23T05:45:27.852Z,58.95
2023-04-23T05:47:55.905Z,59.23
2023-04-23T05:50:24.045Z,59.53
2023-04-23T05:52:52.077Z,59.76
2023-04-23T05:55:21.216Z,59.97
2023-04-23T05:57:50.059Z,60.43
2023-04-23T06:00:18.137Z,60.63
2023-04-23T06:02:47.992Z,60.88
2023-04-23T06:05:16.440Z,61.06
2023-04-23T06:07:44.518Z,61.11
2023-04-23T06:10:12.868Z,61.19
2023-04-23T06:12:42.433Z,61.04
2023-04-23T06:15:11.444Z,61.10
2023-04-23T06:17:39.442Z,61.05
2023-04-23T06:20:09.107Z,60.93
2023-04-23T06:22:37.227Z,60.48
2023-04-23T06:25:05.870Z,60.10
2023-04-23T06:27:34.088Z,59.42
2023-04-23T06:30:02.201Z,59.70
2023-04-23T06:32:30.177Z,59.07
2023-04-23T06:35:01.877Z,59.16
2023-04-23T06:37:33.694Z,59.53
2023-04-23T06:40:01.753Z,58.58
2023-04-23T06:42:31.803Z,58.33
2023-04-23T06:45:05.932Z,58.41
2023-04-23T06:47:34.520Z,58.46
2023-04-23T06:50:03.153Z,56.90
2023-04-23T06:52:31.456Z,56.82
2023-04-23T06:54:59.428Z,56.71
2023-04-23T06:57:29.052Z,56.23
2023-04-23T06:59:57.100Z,56.09
2023-04-23T07:02:25.031Z,56.64
2023-04-23T07:04:53.017Z,55.75
2023-04-23T07:07:22.400Z,55.12
2023-04-23T07:09:51.367Z,54.55
2023-04-23T07:13:44.099Z,54.59
2023-04-23T07:16:12.300Z,54.49
2023-04-23T07:18:40.243Z,53.64
2023-04-23T07:21:08.124Z,53.37
2023-04-23T07:23:36.133Z,52.92
2023-04-23T07:26:04.416Z,52.53
2023-04-23T07:28:33.044Z,51.98
2023-04-23T07:31:02.195Z,51.54
2023-04-23T07:33:30.183Z,50.86
2023-04-23T07:35:58.258Z,51.54
2023-04-23T07:38:26.210Z,51.37
2023-04-23T07:40:54.231Z,50.50
2023-04-23T07:43:24.490Z,50.45
2023-04-23T07:45:52.467Z,50.53
2023-04-23T07:48:20.788Z,48.67
2023-04-23T07:50:48.818Z,47.43
2023-04-23T07:53:17.278Z,47.10
2023-04-23T07:55:45.275Z,47.13
2023-04-23T07:58:13.263Z,45.19
2023-04-23T08:00:41.062Z,44.25
2023-04-23T08:03:09.111Z,43.06
2023-04-23T08:05:38.949Z,42.97
2023-04-23T08:08:08.524Z,42.02
2023-04-23T08:10:36.461Z,41.86
2023-04-23T08:13:04.407Z,41.38
2023-04-23T08:15:32.396Z,41.10
2023-04-23T08:18:00.872Z,39.85
2023-04-23T08:20:28.734Z,39.88
2023-04-23T08:22:56.780Z,38.89
2023-04-23T08:25:24.665Z,38.59
2023-04-23T08:27:52.715Z,38.08
2023-04-23T08:30:20.936Z,37.50
2023-04-23T08:32:55.829Z,37.29
2023-04-23T08:35:24.794Z,37.37
2023-04-23T08:37:53.075Z,37.21
2023-04-23T08:40:21.136Z,37.12
2023-04-23T08:43:07.178Z,36.71
2023-04-23T08:45:41.584Z,35.85
2023-04-23T08:48:10.567Z,35.97
2023-04-23T08:50:39.454Z,35.37
2023-04-23T08:53:07.942Z,35.72
2023-04-23T08:55:36.711Z,35.54
2023-04-23T08:58:07.655Z,34.82
2023-04-23T09:00:35.671Z,35.43
2023-04-23T09:03:04.379Z,35.14
2023-04-23T09:05:32.467Z,34.84
2023-04-23T09:08:00.459Z,34.23
2023-04-23T09:10:29.074Z,34.61
2023-04-23T09:12:56.928Z,34.46
2023-04-23T09:15:24.769Z,34.83
2023-04-23T09:17:52.560Z,34.12
2023-04-23T09:20:20.907Z,33.95
2023-04-23T09:22:52.719Z,33.33
2023-04-23T09:25:23.451Z,33.59
2023-04-23T09:27:52.870Z,33.09
2023-04-23T09:30:20.957Z,33.07
2023-04-23T09:32:49.893Z,33.09
2023-04-23T09:35:20.596Z,32.16
2023-04-23T09:37:52.551Z,32.11
2023-04-23T09:40:23.654Z,32.26
2023-04-23T09:42:54.613Z,32.18
2023-04-23T09:45:25.217Z,31.57
2023-04-23T09:47:55.986Z,31.79
2023-04-23T09:50:41.838Z,32.10
2023-04-23T09:53:10.805Z,32.02
2023-04-23T09:55:40.781Z,31.71
2023-04-23T09:58:15.746Z,31.55
2023-04-23T10:00:43.963Z,31.70
2023-04-23T10:03:12.451Z,32.16
2023-04-23T10:08:14.723Z,32.42
2023-04-23T10:10:57.406Z,32.75
2023-04-23T10:13:28.633Z,32.93
2023-04-23T10:16:07.026Z,32.72
2023-04-23T10:18:38.996Z,32.84
2023-04-23T10:21:07.261Z,32.47
2023-04-23T10:23:37.091Z,32.46
2023-04-23T10:26:06.246Z,32.65
2023-04-23T10:28:34.765Z,32.48
2023-04-23T10:31:04.222Z,32.62
2023-04-23T10:33:39.873Z,32.91
2023-04-23T10:36:14.221Z,33.20
2023-04-23T10:38:56.834Z,33.72
2023-04-23T10:41:29.544Z,33.37
2023-04-23T10:43:57.912Z,33.67
2023-04-23T10:46:33.470Z,34.11
2023-04-23T10:49:15.176Z,34.57
2023-04-23T10:52:17.937Z,33.99
2023-04-23T10:54:36.338Z,34.34
2023-04-23T10:57:06.521Z,34.53
2023-04-23T10:59:39.506Z,34.69
2023-04-23T11:02:12.474Z,34.98
2023-04-23T11:04:55.154Z,34.70
2023-04-23T11:07:33.186Z,34.32
2023-04-23T11:10:15.253Z,34.77
2023-04-23T11:12:44.673Z,35.35
2023-04-23T11:15:15.718Z,35.11
2023-04-23T11:17:48.266Z,35.01
2023-04-23T11:20:21.973Z,34.90
2023-04-23T11:22:52.034Z,34.01
2023-04-23T11:25:22.668Z,34.49
2023-04-23T11:27:52.498Z,34.16
2023-04-23T11:30:26.462Z,34.41
2023-04-23T11:32:56.775Z,34.20
2023-04-23T11:35:30.667Z,34.59
2023-04-23T11:37:58.733Z,35.03
2023-04-23T11:40:29.930Z,35.70
2023-04-23T11:42:59.191Z,35.75
2023-04-23T11:45:29.319Z,36.18
2023-04-23T11:47:59.449Z,36.35
2023-04-23T11:50:33.770Z,36.63
2023-04-23T11:53:11.618Z,37.95
2023-04-23T11:55:43.966Z,39.04
2023-04-23T11:58:11.937Z,39.29
2023-04-23T12:00:39.782Z,38.54
2023-04-23T12:03:08.414Z,39.32
2023-04-23T12:05:43.680Z,40.54
2023-04-23T12:08:19.599Z,41.22
2023-04-23T12:10:55.023Z,41.88
2023-04-23T12:13:33.871Z,41.99
2023-04-23T12:16:04.599Z,42.41
2023-04-23T12:18:39.410Z,42.44
2023-04-23T12:21:14.857Z,42.87
2023-04-23T12:23:45.180Z,43.33
2023-04-23T12:26:15.706Z,44.10
2023-04-23T12:28:56.748Z,44.85
2023-04-23T12:31:28.259Z,45.88
2023-04-23T12:34:07.478Z,46.76
2023-04-23T12:36:38.094Z,46.53
2023-04-23T12:39:36.063Z,46.69
2023-04-23T12:42:09.976Z,46.09
2023-04-23T12:44:39.159Z,46.49
2023-04-23T12:47:09.642Z,47.06
2023-04-23T12:49:40.687Z,46.69
2023-04-23T12:52:10.447Z,46.35
2023-04-23T12:54:40.973Z,47.42
2023-04-23T12:57:12.831Z,47.08
2023-04-23T12:59:40.960Z,47.41
2023-04-23T13:02:10.341Z,47.99
2023-04-23T13:04:38.475Z,47.81
2023-04-23T13:07:06.285Z,47.73
2023-04-23T13:09:36.116Z,46.91
2023-04-23T13:12:04.194Z,47.10
2023-04-23T13:14:32.475Z,46.82
2023-04-23T13:17:00.555Z,47.15
2023-04-23T13:19:28.518Z,47.16
2023-04-23T13:21:56.407Z,48.28
2023-04-23T13:24:24.280Z,48.75
2023-04-23T13:26:52.053Z,48.07
2023-04-23T13:29:20.002Z,48.59
2023-04-23T13:31:47.955Z,48.88
2023-04-23T13:34:16.184Z,49.21
2023-04-23T13:36:44.053Z,48.76
2023-04-23T13:39:14.275Z,48.80
2023-04-23T13:41:42.572Z,48.94
2023-04-23T13:44:10.512Z,50.04
2023-04-23T13:56:55.628Z,53.32
2023-04-23T13:59:25.914Z,54.00
2023-04-23T14:01:54.282Z,54.93
2023-04-23T14:04:27.113Z,56.58
2023-04-23T14:06:57.148Z,58.12
2023-04-23T14:09:25.340Z,58.89
2023-04-23T14:11:53.250Z,59.43
2023-04-23T14:14:21.849Z,59.17
2023-04-23T14:16:49.738Z,59.22
2023-04-23T14:19:18.290Z,59.42
2023-04-23T14:21:48.699Z,59.11
2023-04-23T14:24:24.774Z,59.08
2023-04-23T14:26:52.913Z,59.04
2023-04-23T14:29:29.385Z,59.08
2023-04-23T14:31:57.288Z,59.41
2023-04-23T14:34:25.357Z,60.09
2023-04-23T14:36:53.790Z,60.32
2023-04-23T14:39:26.852Z,60.14
2023-04-23T14:41:54.960Z,60.21
2023-04-23T14:44:29.174Z,60.40
2023-04-23T14:46:57.176Z,60.74
2023-04-23T14:49:25.440Z,61.24
2023-04-23T14:51:58.185Z,61.49
2023-04-23T14:54:26.183Z,62.03
2023-04-23T14:56:54.045Z,63.09
2023-04-23T14:59:23.768Z,61.61
2023-04-23T15:01:51.964Z,58.24
2023-04-23T15:04:20.206Z,56.82
2023-04-23T15:06:48.244Z,57.47
2023-04-23T15:09:16.162Z,58.72
2023-04-23T15:11:44.416Z,60.28
2023-04-23T15:14:27.423Z,61.24
2023-04-23T15:16:55.433Z,61.65
2023-04-23T15:19:23.575Z,61.34
2023-04-23T15:21:51.350Z,61.44
2023-04-23T15:24:19.218Z,62.02
2023-04-23T15:26:47.224Z,61.92
2023-04-23T15:29:15.147Z,63.25
2023-04-23T15:31:43.329Z,61.08
2023-04-23T15:34:12.343Z,57.47
2023-04-23T15:36:40.463Z,57.79
2023-04-23T15:39:08.771Z,59.05
2023-04-23T15:41:39.438Z,60.61
2023-04-23T15:44:11.741Z,61.90
2023-04-23T15:46:40.099Z,62.74
2023-04-23T15:49:09.282Z,61.82
2023-04-23T15:51:37.938Z,57.97
2023-04-23T15:54:08.685Z,58.04
2023-04-23T15:56:37.105Z,59.54
2023-04-23T15:59:05.904Z,60.91
2023-04-23T16:01:33.805Z,61.98
2023-04-23T16:04:10.374Z,63.08
2023-04-23T16:06:40.090Z,59.57
2023-04-23T16:09:08.682Z,56.92
2023-04-23T16:11:38.425Z,57.93
2023-04-23T16:14:07.084Z,59.52
2023-04-23T16:16:35.376Z,60.67
2023-04-23T16:19:03.358Z,61.52
2023-04-23T16:21:32.274Z,62.75
2023-04-23T16:24:00.373Z,60.40
2023-04-23T16:26:29.176Z,56.36
2023-04-23T16:29:16.659Z,56.94
2023-04-23T16:31:45.564Z,58.48
2023-04-23T16:34:13.504Z,59.65
2023-04-23T16:36:42.307Z,60.79
2023-04-23T16:39:11.573Z,62.11
2023-04-23T16:41:39.740Z,62.91
2023-04-23T16:44:07.803Z,58.74
2023-04-23T16:46:35.920Z,56.83
2023-04-23T16:49:04.032Z,58.16
2023-04-23T16:51:35.454Z,59.70
2023-04-23T16:54:03.325Z,60.92
2023-04-23T16:56:31.192Z,61.69
2023-04-23T16:59:00.026Z,62.32
2023-04-23T17:01:27.946Z,62.49
2023-04-23T17:03:56.016Z,58.74
2023-04-23T17:06:30.484Z,56.61
2023-04-23T17:09:01.506Z,58.10
2023-04-23T17:11:30.906Z,59.75
2023-04-23T17:13:58.920Z,61.11
2023-04-23T17:16:26.964Z,62.64
2023-04-23T17:18:55.919Z,61.46
2023-04-23T17:21:24.834Z,57.66
2023-04-23T17:23:52.826Z,58.15
2023-04-23T17:26:20.852Z,59.68
2023-04-23T17:28:48.906Z,61.12
2023-04-23T17:31:18.020Z,62.32
2023-04-23T17:33:49.222Z,62.57
2023-04-23T17:36:19.788Z,58.64
2023-04-23T17:38:49.244Z,57.25
2023-04-23T17:41:17.794Z,58.83
2023-04-23T17:43:46.021Z,60.25
2023-04-23T17:46:14.038Z,61.35
2023-04-23T17:48:42.093Z,62.26
2023-04-23T17:51:10.051Z,63.68
2023-04-23T17:53:38.034Z,60.44
2023-04-23T17:56:06.483Z,56.97
2023-04-23T17:58:35.830Z,58.30
2023-04-23T18:01:04.134Z,60.03
2023-04-23T18:03:32.247Z,61.20
2023-04-23T18:06:00.424Z,62.43
2023-04-23T18:08:28.408Z,63.94
2023-04-23T18:10:56.736Z,60.80
2023-04-23T18:13:24.815Z,57.27
2023-04-23T18:15:52.683Z,57.66
2023-04-23T18:18:21.848Z,59.52
2023-04-23T18:20:52.218Z,60.95
2023-04-23T18:23:22.050Z,62.25
2023-04-23T18:25:50.130Z,63.74
2023-04-23T18:28:18.006Z,60.53
2023-04-23T18:30:46.072Z,56.42
2023-04-23T18:33:29.319Z,57.31
2023-04-23T18:36:05.079Z,59.30
2023-04-23T18:38:45.037Z,60.99
2023-04-23T18:41:12.991Z,62.22
2023-04-23T18:43:40.989Z,63.69
2023-04-23T18:46:08.875Z,60.48
2023-04-23T18:49:09.280Z,56.81
2023-04-23T18:51:44.958Z,57.98
2023-04-23T18:54:17.773Z,60.06
2023-04-23T18:56:45.654Z,61.63
2023-04-23T18:59:16.511Z,63.20
2023-04-23T19:01:46.399Z,60.77
2023-04-23T19:04:15.338Z,56.89
2023-04-23T19:06:43.423Z,57.77
2023-04-23T19:09:11.620Z,59.65
2023-04-23T19:11:40.406Z,61.24
2023-04-23T19:14:08.269Z,62.39
2023-04-23T19:16:38.933Z,63.80
2023-04-23T19:19:06.856Z,60.75
2023-04-23T19:21:34.783Z,56.79
2023-04-23T19:24:03.184Z,57.64
2023-04-23T19:26:31.135Z,59.67
2023-04-23T19:28:58.983Z,61.43
2023-04-23T19:31:29.673Z,63.13
2023-04-23T19:33:57.931Z,60.89
2023-04-23T19:36:26.591Z,57.25
2023-04-23T19:38:54.543Z,58.18
2023-04-23T19:41:22.386Z,60.14
2023-04-23T19:43:50.323Z,61.37
2023-04-23T19:46:18.259Z,62.60
2023-04-23T19:48:46.283Z,63.30
2023-04-23T19:51:14.149Z,59.65
2023-04-23T19:53:42.171Z,56.94
2023-04-23T19:56:13.191Z,58.71
2023-04-23T19:58:41.213Z,60.67
2023-04-23T20:01:10.771Z,62.47
2023-04-23T20:03:39.934Z,63.42
2023-04-23T20:06:07.867Z,60.05
2023-04-23T20:08:42.711Z,56.92
2023-04-23T20:11:10.928Z,58.31
2023-04-23T20:13:38.838Z,60.33
2023-04-23T20:16:08.233Z,61.91
2023-04-23T20:18:39.268Z,63.46
2023-04-23T20:21:09.278Z,60.52
2023-04-23T20:23:40.427Z,57.42
2023-04-23T20:26:08.442Z,58.70
2023-04-23T20:28:36.382Z,60.68
2023-04-23T20:31:06.184Z,62.35
2023-04-23T20:33:34.196Z,63.28
2023-04-23T20:36:02.157Z,60.27
2023-04-23T20:38:30.851Z,57.32
2023-04-23T20:41:02.731Z,58.70
2023-04-23T20:43:33.148Z,60.69
2023-04-23T20:46:02.594Z,62.18
2023-04-23T20:48:30.983Z,63.59
2023-04-23T20:50:59.626Z,60.83
2023-04-23T20:53:28.822Z,57.25
2023-04-23T20:55:57.234Z,58.44
2023-04-23T20:58:25.341Z,60.60
2023-04-23T21:00:54.278Z,62.13
2023-04-23T21:03:23.753Z,63.63
2023-04-23T21:05:51.757Z,60.62
2023-04-23T21:08:19.673Z,57.14
2023-04-23T21:10:47.457Z,58.35
2023-04-23T21:13:15.328Z,60.65
2023-04-23T21:15:43.358Z,62.35
2023-04-23T21:18:11.546Z,63.65
2023-04-23T21:20:39.543Z,60.67
2023-04-23T21:23:07.576Z,57.23
2023-04-23T21:25:35.590Z,58.37
2023-04-23T21:28:03.876Z,60.45
2023-04-23T21:30:56.985Z,62.15
2023-04-23T21:33:25.780Z,63.57
2023-04-23T21:35:54.117Z,59.94
2023-04-23T21:38:21.940Z,56.92
2023-04-23T21:40:49.761Z,58.67
2023-04-23T21:43:17.695Z,61.06
2023-04-23T21:45:45.778Z,62.85
2023-04-23T21:48:13.600Z,62.69
2023-04-23T21:50:41.396Z,58.87
2023-04-23T21:53:09.866Z,57.47
2023-04-23T21:55:37.721Z,59.51
2023-04-23T21:58:17.174Z,61.46
2023-04-23T22:00:46.070Z,63.73
2023-04-23T22:03:16.320Z,60.85
2023-04-23T22:06:04.528Z,57.42
2023-04-23T22:08:33.045Z,59.06
2023-04-23T22:11:01.058Z,61.78
2023-04-23T22:13:28.899Z,64.04
2023-04-23T22:15:57.576Z,61.18
2023-04-23T22:18:26.845Z,57.61
2023-04-23T22:20:54.789Z,58.51
2023-04-23T22:23:22.639Z,60.60
2023-04-23T22:25:50.616Z,62.68
2023-04-23T22:28:18.356Z,61.23
2023-04-23T22:30:46.207Z,57.72
2023-04-23T22:33:14.035Z,58.55
2023-04-23T22:35:41.846Z,60.66
2023-04-23T22:38:09.996Z,62.94
2023-04-23T22:40:37.867Z,62.58
2023-04-23T22:43:06.553Z,59.19
2023-04-23T22:45:34.410Z,57.52
2023-04-23T22:48:02.435Z,59.53
2023-04-23T22:50:30.921Z,61.75
2023-04-23T22:52:58.845Z,63.22
2023-04-23T22:55:26.703Z,60.37
2023-04-23T22:57:54.537Z,57.55
2023-04-23T23:00:22.449Z,59.19
2023-04-23T23:02:50.593Z,61.23
2023-04-23T23:05:18.724Z,63.46
2023-04-23T23:07:46.606Z,61.14
2023-04-23T23:10:14.396Z,57.65
2023-04-23T23:12:42.257Z,58.81
2023-04-23T23:15:10.769Z,61.15
2023-04-23T23:17:38.615Z,63.14
2023-04-23T23:20:08.972Z,61.18
2023-04-23T23:22:37.599Z,57.86
2023-04-23T23:25:07.533Z,58.90
2023-04-23T23:27:35.929Z,61.13
2023-04-23T23:30:07.880Z,63.38
2023-04-23T23:32:36.888Z,61.49
2023-04-23T23:35:05.265Z,58.17
2023-04-23T23:37:33.107Z,58.91
2023-04-23T23:40:00.977Z,60.95
2023-04-23T23:42:28.844Z,63.19
2023-04-23T23:44:56.628Z,61.52
2023-04-23T23:47:24.608Z,57.99
2023-04-23T23:49:54.663Z,58.94
2023-04-23T23:52:22.554Z,61.28
2023-04-23T23:54:51.294Z,63.32
2023-04-23T23:57:19.055Z,60.65
2023-04-23T23:59:47.169Z,57.35
